Alfonso López Pumarejo Airport

Airport
ICAO code: 
SKVP
IATA Code: 
VUP
Summary
ICAO Region: 
CARSAM
Territory: 
Location: 
Valledupar, Cesar department
Serving: 
Valledupar
Elevation: 
485 ft
Coordinates: 
Aerial View: 
10° 26' 3.175" N, 73° 14' 58.654" W
Metar
Observation
SKVP 042100Z 07012KT 9999 FEW020 33/19 Q1008 RMK A2977
Station
Valledupar / Alfonso Lopez
Date/Time
2021-12-04 21:00:00
Wind direction
70°
Wind speed
12 kts
Lowest cloud amount
few clouds
Temperature
33°C
Dew point
19°C
Humidity
43%
QNH
1008 hPa
Weather condition
n/a

Alfonso López Pumarejo Airport serves as air terminal for the city of Valledupar, Colombia and as a small Colombian Air Force and Colombian Police air base.

Climatology

Tropical savanna climate (Köppen climate classification Aw)

Runways

Designator Length Width Surface Rops
2/20 2100 30 ASP Yes/Yes
Airport map: 
Aerial View: 

SKYbrary Partners:

Safety knowledge contributed by: